sensor_id;sensor_type;location;lat;lon;timestamp;temperature;humidity
70820;DHT22;58439;51.046;13.692;2023-02-28T00:01:46;0.90;97.60
70820;DHT22;58439;51.046;13.692;2023-02-28T00:08:21;0.90;97.80
70820;DHT22;58439;51.046;13.692;2023-02-28T00:10:49;0.90;97.80
70820;DHT22;58439;51.046;13.692;2023-02-28T00:14:01;0.90;97.60
70820;DHT22;58439;51.046;13.692;2023-02-28T00:16:29;0.90;97.40
70820;DHT22;58439;51.046;13.692;2023-02-28T00:18:56;0.80;97.40
70820;DHT22;58439;51.046;13.692;2023-02-28T00:21:23;0.80;97.40
70820;DHT22;58439;51.046;13.692;2023-02-28T00:23:51;0.80;97.40
70820;DHT22;58439;51.046;13.692;2023-02-28T00:26:18;0.80;97.60
70820;DHT22;58439;51.046;13.692;2023-02-28T00:28:48;0.70;97.60
70820;DHT22;58439;51.046;13.692;2023-02-28T00:31:16;0.70;97.70
70820;DHT22;58439;51.046;13.692;2023-02-28T00:33:43;0.70;97.80
70820;DHT22;58439;51.046;13.692;2023-02-28T00:36:11;0.70;97.80
70820;DHT22;58439;51.046;13.692;2023-02-28T00:38:39;0.70;97.80
70820;DHT22;58439;51.046;13.692;2023-02-28T00:41:08;0.70;97.80
70820;DHT22;58439;51.046;13.692;2023-02-28T00:43:37;0.70;97.80
70820;DHT22;58439;51.046;13.692;2023-02-28T00:46:06;0.70;97.70
70820;DHT22;58439;51.046;13.692;2023-02-28T00:48:34;0.70;97.30
70820;DHT22;58439;51.046;13.692;2023-02-28T00:51:04;0.70;97.10
70820;DHT22;58439;51.046;13.692;2023-02-28T00:53:31;0.70;96.80
70820;DHT22;58439;51.046;13.692;2023-02-28T00:55:59;0.60;96.50
70820;DHT22;58439;51.046;13.692;2023-02-28T00:58:27;0.60;96.30
70820;DHT22;58439;51.046;13.692;2023-02-28T01:00:54;0.60;96.30
70820;DHT22;58439;51.046;13.692;2023-02-28T01:03:22;0.50;96.00
70820;DHT22;58439;51.046;13.692;2023-02-28T01:05:50;0.50;95.70
70820;DHT22;58439;51.046;13.692;2023-02-28T01:08:17;0.50;95.60
70820;DHT22;58439;51.046;13.692;2023-02-28T01:10:44;0.50;95.50
70820;DHT22;58439;51.046;13.692;2023-02-28T01:17:51;0.50;95.40
70820;DHT22;58439;51.046;13.692;2023-02-28T01:20:18;0.60;95.40
70820;DHT22;58439;51.046;13.692;2023-02-28T01:22:47;0.60;95.30
70820;DHT22;58439;51.046;13.692;2023-02-28T01:25:14;0.60;95.30
70820;DHT22;58439;51.046;13.692;2023-02-28T01:27:42;0.60;95.40
70820;DHT22;58439;51.046;13.692;2023-02-28T01:30:10;0.60;95.50
70820;DHT22;58439;51.046;13.692;2023-02-28T01:32:37;0.60;95.50
70820;DHT22;58439;51.046;13.692;2023-02-28T01:35:05;0.60;95.50
70820;DHT22;58439;51.046;13.692;2023-02-28T01:37:33;0.60;95.30
70820;DHT22;58439;51.046;13.692;2023-02-28T01:40:00;0.70;95.10
70820;DHT22;58439;51.046;13.692;2023-02-28T01:42:28;0.60;94.90
70820;DHT22;58439;51.046;13.692;2023-02-28T01:48:05;0.60;94.80
70820;DHT22;58439;51.046;13.692;2023-02-28T01:50:39;0.60;94.60
70820;DHT22;58439;51.046;13.692;2023-02-28T01:53:13;0.60;94.30
70820;DHT22;58439;51.046;13.692;2023-02-28T01:55:46;0.50;94.30
70820;DHT22;58439;51.046;13.692;2023-02-28T01:58:16;0.50;94.40
70820;DHT22;58439;51.046;13.692;2023-02-28T02:00:44;0.50;94.40
70820;DHT22;58439;51.046;13.692;2023-02-28T02:03:13;0.50;94.50
70820;DHT22;58439;51.046;13.692;2023-02-28T02:05:46;0.50;94.60
70820;DHT22;58439;51.046;13.692;2023-02-28T02:08:25;0.50;94.60
70820;DHT22;58439;51.046;13.692;2023-02-28T02:11:00;0.40;94.70
70820;DHT22;58439;51.046;13.692;2023-02-28T02:20:02;0.40;94.90
70820;DHT22;58439;51.046;13.692;2023-02-28T02:23:01;0.40;95.00
70820;DHT22;58439;51.046;13.692;2023-02-28T02:25:56;0.30;95.00
70820;DHT22;58439;51.046;13.692;2023-02-28T02:41:34;0.30;95.00
70820;DHT22;58439;51.046;13.692;2023-02-28T02:44:46;0.30;94.90
70820;DHT22;58439;51.046;13.692;2023-02-28T02:47:21;0.30;94.80
70820;DHT22;58439;51.046;13.692;2023-02-28T02:49:55;0.30;94.90
70820;DHT22;58439;51.046;13.692;2023-02-28T02:52:44;0.30;95.00
70820;DHT22;58439;51.046;13.692;2023-02-28T02:55:20;0.30;95.10
70820;DHT22;58439;51.046;13.692;2023-02-28T02:57:58;0.30;95.10
70820;DHT22;58439;51.046;13.692;2023-02-28T03:00:34;0.30;95.20
70820;DHT22;58439;51.046;13.692;2023-02-28T03:03:07;0.30;95.20
70820;DHT22;58439;51.046;13.692;2023-02-28T03:09:37;0.30;95.60
70820;DHT22;58439;51.046;13.692;2023-02-28T03:12:09;0.30;95.60
70820;DHT22;58439;51.046;13.692;2023-02-28T03:20:49;0.20;95.70
70820;DHT22;58439;51.046;13.692;2023-02-28T03:27:21;0.10;95.80
70820;DHT22;58439;51.046;13.692;2023-02-28T03:30:01;0.00;95.90
70820;DHT22;58439;51.046;13.692;2023-02-28T03:32:41;0.00;96.00
70820;DHT22;58439;51.046;13.692;2023-02-28T03:35:22;0.00;96.10
70820;DHT22;58439;51.046;13.692;2023-02-28T03:37:58;-0.10;96.10
70820;DHT22;58439;51.046;13.692;2023-02-28T03:40:33;-0.10;96.10
70820;DHT22;58439;51.046;13.692;2023-02-28T03:43:09;-0.20;96.40
70820;DHT22;58439;51.046;13.692;2023-02-28T03:45:41;-0.20;96.60
70820;DHT22;58439;51.046;13.692;2023-02-28T03:48:23;-0.30;96.40
70820;DHT22;58439;51.046;13.692;2023-02-28T03:50:59;-0.30;96.40
70820;DHT22;58439;51.046;13.692;2023-02-28T03:53:32;-0.40;96.60
70820;DHT22;58439;51.046;13.692;2023-02-28T03:56:40;-0.40;96.80
70820;DHT22;58439;51.046;13.692;2023-02-28T04:01:57;-0.60;96.90
70820;DHT22;58439;51.046;13.692;2023-02-28T04:04:25;-0.70;97.30
70820;DHT22;58439;51.046;13.692;2023-02-28T04:06:53;-0.70;97.70
70820;DHT22;58439;51.046;13.692;2023-02-28T04:09:28;-0.70;97.90
70820;DHT22;58439;51.046;13.692;2023-02-28T04:11:56;-0.70;98.20
70820;DHT22;58439;51.046;13.692;2023-02-28T04:14:23;-0.70;98.10
70820;DHT22;58439;51.046;13.692;2023-02-28T04:16:51;-0.70;98.00
70820;DHT22;58439;51.046;13.692;2023-02-28T04:19:19;-0.70;98.10
70820;DHT22;58439;51.046;13.692;2023-02-28T04:21:53;-0.80;98.20
70820;DHT22;58439;51.046;13.692;2023-02-28T04:24:23;-0.80;98.40
70820;DHT22;58439;51.046;13.692;2023-02-28T04:26:54;-0.80;98.80
70820;DHT22;58439;51.046;13.692;2023-02-28T04:29:26;-0.90;99.10
70820;DHT22;58439;51.046;13.692;2023-02-28T04:32:00;-0.90;99.10
70820;DHT22;58439;51.046;13.692;2023-02-28T04:34:30;-0.90;99.30
70820;DHT22;58439;51.046;13.692;2023-02-28T04:36:58;-1.00;99.50
70820;DHT22;58439;51.046;13.692;2023-02-28T04:39:42;-1.10;99.60
70820;DHT22;58439;51.046;13.692;2023-02-28T04:42:11;-1.10;99.80
70820;DHT22;58439;51.046;13.692;2023-02-28T04:44:40;-1.20;99.90
70820;DHT22;58439;51.046;13.692;2023-02-28T04:47:07;-1.20;99.90
70820;DHT22;58439;51.046;13.692;2023-02-28T04:49:35;-1.30;99.90
70820;DHT22;58439;51.046;13.692;2023-02-28T04:52:02;-1.30;99.90
70820;DHT22;58439;51.046;13.692;2023-02-28T04:54:30;-1.40;99.90
70820;DHT22;58439;51.046;13.692;2023-02-28T04:56:57;-1.40;99.90
70820;DHT22;58439;51.046;13.692;2023-02-28T04:59:25;-1.40;99.90
70820;DHT22;58439;51.046;13.692;2023-02-28T05:01:55;-1.50;99.90
70820;DHT22;58439;51.046;13.692;2023-02-28T05:04:22;-1.50;99.90
70820;DHT22;58439;51.046;13.692;2023-02-28T05:06:52;-1.50;99.90
70820;DHT22;58439;51.046;13.692;2023-02-28T05:09:19;-1.50;99.90
70820;DHT22;58439;51.046;13.692;2023-02-28T05:11:46;-1.50;99.90
70820;DHT22;58439;51.046;13.692;2023-02-28T05:14:15;-1.60;99.90
70820;DHT22;58439;51.046;13.692;2023-02-28T05:16:42;-1.60;99.90
70820;DHT22;58439;51.046;13.692;2023-02-28T05:19:10;-1.60;99.90
70820;DHT22;58439;51.046;13.692;2023-02-28T05:21:42;-1.60;99.90
70820;DHT22;58439;51.046;13.692;2023-02-28T05:24:18;-1.60;99.90
70820;DHT22;58439;51.046;13.692;2023-02-28T05:26:53;-1.70;99.90
70820;DHT22;58439;51.046;13.692;2023-02-28T05:29:22;-1.70;99.90
70820;DHT22;58439;51.046;13.692;2023-02-28T05:31:49;-1.70;99.90
70820;DHT22;58439;51.046;13.692;2023-02-28T05:34:17;-1.70;99.90
70820;DHT22;58439;51.046;13.692;2023-02-28T05:36:44;-1.80;99.90
70820;DHT22;58439;51.046;13.692;2023-02-28T05:39:11;-1.80;99.90
70820;DHT22;58439;51.046;13.692;2023-02-28T05:41:41;-1.90;99.90
70820;DHT22;58439;51.046;13.692;2023-02-28T05:44:10;-1.90;99.90
70820;DHT22;58439;51.046;13.692;2023-02-28T05:46:38;-1.90;99.90
70820;DHT22;58439;51.046;13.692;2023-02-28T05:49:06;-1.90;99.90
70820;DHT22;58439;51.046;13.692;2023-02-28T05:51:33;-1.90;99.90
70820;DHT22;58439;51.046;13.692;2023-02-28T05:54:03;-1.90;99.90
70820;DHT22;58439;51.046;13.692;2023-02-28T05:56:30;-2.00;99.90
70820;DHT22;58439;51.046;13.692;2023-02-28T05:58:58;-2.00;99.90
70820;DHT22;58439;51.046;13.692;2023-02-28T06:01:38;-2.00;99.90
70820;DHT22;58439;51.046;13.692;2023-02-28T06:04:32;-1.90;99.90
70820;DHT22;58439;51.046;13.692;2023-02-28T06:07:35;-1.90;99.90
70820;DHT22;58439;51.046;13.692;2023-02-28T06:10:02;-2.00;99.90
70820;DHT22;58439;51.046;13.692;2023-02-28T06:12:30;-2.00;99.90
70820;DHT22;58439;51.046;13.692;2023-02-28T06:14:57;-2.00;99.90
70820;DHT22;58439;51.046;13.692;2023-02-28T06:17:24;-1.90;99.90
70820;DHT22;58439;51.046;13.692;2023-02-28T06:19:51;-1.90;99.90
70820;DHT22;58439;51.046;13.692;2023-02-28T06:22:22;-1.90;99.90
70820;DHT22;58439;51.046;13.692;2023-02-28T06:24:49;-1.80;99.90
70820;DHT22;58439;51.046;13.692;2023-02-28T06:27:19;-1.80;99.90
70820;DHT22;58439;51.046;13.692;2023-02-28T06:29:47;-1.80;99.90
70820;DHT22;58439;51.046;13.692;2023-02-28T06:32:14;-1.80;99.90
70820;DHT22;58439;51.046;13.692;2023-02-28T06:34:42;-1.80;99.90
70820;DHT22;58439;51.046;13.692;2023-02-28T06:37:14;-1.70;99.90
70820;DHT22;58439;51.046;13.692;2023-02-28T06:39:42;-1.70;99.90
70820;DHT22;58439;51.046;13.692;2023-02-28T06:46:03;-1.70;99.90
70820;DHT22;58439;51.046;13.692;2023-02-28T06:48:32;-1.70;99.90
70820;DHT22;58439;51.046;13.692;2023-02-28T06:51:07;-1.70;99.90
70820;DHT22;58439;51.046;13.692;2023-02-28T06:53:37;-1.70;99.90
70820;DHT22;58439;51.046;13.692;2023-02-28T06:59:10;-1.70;99.90
70820;DHT22;58439;51.046;13.692;2023-02-28T07:02:30;-1.70;99.90
70820;DHT22;58439;51.046;13.692;2023-02-28T07:04:58;-1.60;99.90
70820;DHT22;58439;51.046;13.692;2023-02-28T07:07:25;-1.60;99.90
70820;DHT22;58439;51.046;13.692;2023-02-28T07:09:52;-1.50;99.90
70820;DHT22;58439;51.046;13.692;2023-02-28T07:12:20;-1.30;99.90
70820;DHT22;58439;51.046;13.692;2023-02-28T07:14:47;-1.20;99.90
70820;DHT22;58439;51.046;13.692;2023-02-28T07:17:15;-1.00;99.90
70820;DHT22;58439;51.046;13.692;2023-02-28T07:19:42;-0.80;99.90
70820;DHT22;58439;51.046;13.692;2023-02-28T07:22:09;-0.60;99.90
70820;DHT22;58439;51.046;13.692;2023-02-28T07:24:37;-0.40;99.90
70820;DHT22;58439;51.046;13.692;2023-02-28T07:27:05;-0.30;99.90
70820;DHT22;58439;51.046;13.692;2023-02-28T07:29:34;-0.20;99.90
70820;DHT22;58439;51.046;13.692;2023-02-28T07:32:01;0.00;99.90
70820;DHT22;58439;51.046;13.692;2023-02-28T07:34:29;0.20;99.90
70820;DHT22;58439;51.046;13.692;2023-02-28T07:36:56;0.40;99.90
70820;DHT22;58439;51.046;13.692;2023-02-28T07:39:23;0.50;99.90
70820;DHT22;58439;51.046;13.692;2023-02-28T07:41:50;0.50;99.90
70820;DHT22;58439;51.046;13.692;2023-02-28T07:44:19;0.50;99.90
70820;DHT22;58439;51.046;13.692;2023-02-28T07:46:47;0.60;99.90
70820;DHT22;58439;51.046;13.692;2023-02-28T07:49:15;0.60;99.90
70820;DHT22;58439;51.046;13.692;2023-02-28T07:51:42;0.70;99.90
70820;DHT22;58439;51.046;13.692;2023-02-28T07:54:10;0.80;99.90
70820;DHT22;58439;51.046;13.692;2023-02-28T07:56:37;0.80;99.90
70820;DHT22;58439;51.046;13.692;2023-02-28T07:59:04;0.90;99.90
70820;DHT22;58439;51.046;13.692;2023-02-28T08:01:32;0.90;99.90
70820;DHT22;58439;51.046;13.692;2023-02-28T08:03:59;1.10;99.80
70820;DHT22;58439;51.046;13.692;2023-02-28T08:06:27;1.20;98.10
70820;DHT22;58439;51.046;13.692;2023-02-28T08:08:54;1.40;97.10
70820;DHT22;58439;51.046;13.692;2023-02-28T08:11:23;1.50;95.90
70820;DHT22;58439;51.046;13.692;2023-02-28T08:13:50;1.60;96.00
70820;DHT22;58439;51.046;13.692;2023-02-28T08:16:17;1.70;95.50
70820;DHT22;58439;51.046;13.692;2023-02-28T08:18:53;1.70;95.20
70820;DHT22;58439;51.046;13.692;2023-02-28T08:21:21;1.90;93.50
70820;DHT22;58439;51.046;13.692;2023-02-28T08:23:51;2.00;92.80
70820;DHT22;58439;51.046;13.692;2023-02-28T08:26:20;2.10;89.00
70820;DHT22;58439;51.046;13.692;2023-02-28T08:28:47;2.10;87.90
70820;DHT22;58439;51.046;13.692;2023-02-28T08:31:16;2.10;87.50
70820;DHT22;58439;51.046;13.692;2023-02-28T08:33:44;2.00;86.90
70820;DHT22;58439;51.046;13.692;2023-02-28T08:36:12;2.00;85.70
70820;DHT22;58439;51.046;13.692;2023-02-28T08:38:40;2.00;83.10
70820;DHT22;58439;51.046;13.692;2023-02-28T08:41:09;2.10;84.60
70820;DHT22;58439;51.046;13.692;2023-02-28T08:43:39;2.10;84.50
70820;DHT22;58439;51.046;13.692;2023-02-28T08:46:08;2.30;82.70
70820;DHT22;58439;51.046;13.692;2023-02-28T08:48:39;2.50;81.70
70820;DHT22;58439;51.046;13.692;2023-02-28T08:51:17;2.60;76.10
70820;DHT22;58439;51.046;13.692;2023-02-28T08:54:26;2.80;80.60
70820;DHT22;58439;51.046;13.692;2023-02-28T08:57:10;2.90;78.20
70820;DHT22;58439;51.046;13.692;2023-02-28T09:00:07;3.00;71.30
70820;DHT22;58439;51.046;13.692;2023-02-28T09:02:35;3.10;69.30
70820;DHT22;58439;51.046;13.692;2023-02-28T09:05:37;3.30;69.10
70820;DHT22;58439;51.046;13.692;2023-02-28T09:08:04;3.40;67.80
70820;DHT22;58439;51.046;13.692;2023-02-28T09:10:31;3.60;64.50
70820;DHT22;58439;51.046;13.692;2023-02-28T09:12:59;3.70;61.90
70820;DHT22;58439;51.046;13.692;2023-02-28T09:15:26;3.80;63.40
70820;DHT22;58439;51.046;13.692;2023-02-28T09:17:53;3.90;63.60
70820;DHT22;58439;51.046;13.692;2023-02-28T09:20:20;4.10;62.10
70820;DHT22;58439;51.046;13.692;2023-02-28T09:22:48;4.20;58.10
70820;DHT22;58439;51.046;13.692;2023-02-28T09:25:15;4.20;53.60
70820;DHT22;58439;51.046;13.692;2023-02-28T09:27:42;4.10;53.50
70820;DHT22;58439;51.046;13.692;2023-02-28T09:30:27;4.10;54.30
70820;DHT22;58439;51.046;13.692;2023-02-28T09:33:02;4.30;51.80
70820;DHT22;58439;51.046;13.692;2023-02-28T09:35:35;4.20;51.10
70820;DHT22;58439;51.046;13.692;2023-02-28T09:38:06;4.10;51.90
70820;DHT22;58439;51.046;13.692;2023-02-28T09:41:03;4.00;51.80
70820;DHT22;58439;51.046;13.692;2023-02-28T09:43:39;3.80;51.20
70820;DHT22;58439;51.046;13.692;2023-02-28T09:46:32;3.70;49.40
70820;DHT22;58439;51.046;13.692;2023-02-28T09:49:23;3.50;49.50
70820;DHT22;58439;51.046;13.692;2023-02-28T09:52:02;3.50;50.20
70820;DHT22;58439;51.046;13.692;2023-02-28T09:54:46;3.50;51.40
70820;DHT22;58439;51.046;13.692;2023-02-28T10:00:18;3.80;50.70
70820;DHT22;58439;51.046;13.692;2023-02-28T10:06:18;4.40;48.40
70820;DHT22;58439;51.046;13.692;2023-02-28T10:09:25;4.50;46.60
70820;DHT22;58439;51.046;13.692;2023-02-28T10:16:59;4.80;45.20
70820;DHT22;58439;51.046;13.692;2023-02-28T10:20:12;4.90;42.00
70820;DHT22;58439;51.046;13.692;2023-02-28T10:24:02;4.60;43.10
70820;DHT22;58439;51.046;13.692;2023-02-28T10:26:45;4.30;43.80
70820;DHT22;58439;51.046;13.692;2023-02-28T10:29:15;4.20;44.40
70820;DHT22;58439;51.046;13.692;2023-02-28T10:31:42;4.10;44.60
70820;DHT22;58439;51.046;13.692;2023-02-28T10:34:12;4.20;45.10
70820;DHT22;58439;51.046;13.692;2023-02-28T10:36:41;4.30;45.10
70820;DHT22;58439;51.046;13.692;2023-02-28T10:39:36;4.30;44.60
70820;DHT22;58439;51.046;13.692;2023-02-28T10:45:12;4.30;44.50
70820;DHT22;58439;51.046;13.692;2023-02-28T10:48:02;4.60;44.40
70820;DHT22;58439;51.046;13.692;2023-02-28T10:56:03;4.60;45.00
70820;DHT22;58439;51.046;13.692;2023-02-28T11:01:42;5.20;43.90
70820;DHT22;58439;51.046;13.692;2023-02-28T11:04:19;5.30;43.10
70820;DHT22;58439;51.046;13.692;2023-02-28T11:12:26;4.90;43.30
70820;DHT22;58439;51.046;13.692;2023-02-28T11:15:06;5.00;43.10
70820;DHT22;58439;51.046;13.692;2023-02-28T11:17:58;5.20;42.20
70820;DHT22;58439;51.046;13.692;2023-02-28T11:20:58;5.30;42.40
70820;DHT22;58439;51.046;13.692;2023-02-28T11:23:30;5.60;41.50
70820;DHT22;58439;51.046;13.692;2023-02-28T11:26:04;5.80;41.30
70820;DHT22;58439;51.046;13.692;2023-02-28T11:28:36;6.50;40.90
70820;DHT22;58439;51.046;13.692;2023-02-28T11:33:52;8.40;37.90
70820;DHT22;58439;51.046;13.692;2023-02-28T11:36:28;9.10;35.80
70820;DHT22;58439;51.046;13.692;2023-02-28T11:39:08;9.40;34.40
70820;DHT22;58439;51.046;13.692;2023-02-28T11:41:59;9.20;33.10
70820;DHT22;58439;51.046;13.692;2023-02-28T11:47:53;7.60;36.20
70820;DHT22;58439;51.046;13.692;2023-02-28T11:53:55;6.70;36.60
70820;DHT22;58439;51.046;13.692;2023-02-28T11:56:41;6.70;36.90
70820;DHT22;58439;51.046;13.692;2023-02-28T11:59:35;7.60;35.80
70820;DHT22;58439;51.046;13.692;2023-02-28T12:02:40;8.70;34.20
70820;DHT22;58439;51.046;13.692;2023-02-28T12:05:24;9.40;32.30
70820;DHT22;58439;51.046;13.692;2023-02-28T12:23:07;11.20;28.20
70820;DHT22;58439;51.046;13.692;2023-02-28T12:29:10;11.20;29.00
70820;DHT22;58439;51.046;13.692;2023-02-28T12:32:09;11.60;27.90
70820;DHT22;58439;51.046;13.692;2023-02-28T12:37:44;12.10;28.00
70820;DHT22;58439;51.046;13.692;2023-02-28T12:40:21;11.90;27.90
70820;DHT22;58439;51.046;13.692;2023-02-28T12:42:59;11.90;27.90
70820;DHT22;58439;51.046;13.692;2023-02-28T12:46:02;11.90;29.30
70820;DHT22;58439;51.046;13.692;2023-02-28T12:49:23;12.10;28.70
70820;DHT22;58439;51.046;13.692;2023-02-28T12:51:55;12.30;28.20
70820;DHT22;58439;51.046;13.692;2023-02-28T12:54:52;12.80;27.70
70820;DHT22;58439;51.046;13.692;2023-02-28T12:57:52;13.00;27.20
70820;DHT22;58439;51.046;13.692;2023-02-28T13:00:35;13.10;27.30
70820;DHT22;58439;51.046;13.692;2023-02-28T13:09:52;12.60;26.60
70820;DHT22;58439;51.046;13.692;2023-02-28T13:12:30;12.40;27.20
70820;DHT22;58439;51.046;13.692;2023-02-28T13:15:22;12.40;26.70
70820;DHT22;58439;51.046;13.692;2023-02-28T13:18:41;12.40;26.70
70820;DHT22;58439;51.046;13.692;2023-02-28T13:24:03;11.20;27.60
70820;DHT22;58439;51.046;13.692;2023-02-28T13:29:32;10.60;28.60
70820;DHT22;58439;51.046;13.692;2023-02-28T13:32:45;11.00;29.00
70820;DHT22;58439;51.046;13.692;2023-02-28T13:35:14;11.60;27.70
70820;DHT22;58439;51.046;13.692;2023-02-28T13:38:56;11.70;27.70
70820;DHT22;58439;51.046;13.692;2023-02-28T13:58:09;12.30;26.50
70820;DHT22;58439;51.046;13.692;2023-02-28T14:07:50;12.70;26.10
70820;DHT22;58439;51.046;13.692;2023-02-28T14:10:34;12.60;25.80
70820;DHT22;58439;51.046;13.692;2023-02-28T14:14:53;12.30;26.30
70820;DHT22;58439;51.046;13.692;2023-02-28T14:17:08;12.20;26.60
70820;DHT22;58439;51.046;13.692;2023-02-28T14:19:45;12.20;26.80
70820;DHT22;58439;51.046;13.692;2023-02-28T14:32:33;12.70;25.30
70820;DHT22;58439;51.046;13.692;2023-02-28T14:38:24;12.70;25.60
70820;DHT22;58439;51.046;13.692;2023-02-28T14:40:58;12.60;26.30
70820;DHT22;58439;51.046;13.692;2023-02-28T14:47:01;12.50;26.20
70820;DHT22;58439;51.046;13.692;2023-02-28T14:49:42;12.50;26.30
70820;DHT22;58439;51.046;13.692;2023-02-28T14:52:19;12.30;25.80
70820;DHT22;58439;51.046;13.692;2023-02-28T14:54:53;11.60;26.30
70820;DHT22;58439;51.046;13.692;2023-02-28T14:57:28;11.10;27.40
70820;DHT22;58439;51.046;13.692;2023-02-28T15:02:44;10.60;28.00
70820;DHT22;58439;51.046;13.692;2023-02-28T15:05:19;10.30;28.10
70820;DHT22;58439;51.046;13.692;2023-02-28T15:08:12;10.10;28.60
70820;DHT22;58439;51.046;13.692;2023-02-28T15:10:49;9.70;28.70
70820;DHT22;58439;51.046;13.692;2023-02-28T15:13:51;9.20;29.40
70820;DHT22;58439;51.046;13.692;2023-02-28T15:16:25;8.30;30.50
70820;DHT22;58439;51.046;13.692;2023-02-28T15:19:05;7.60;32.10
70820;DHT22;58439;51.046;13.692;2023-02-28T15:21:46;7.00;33.20
70820;DHT22;58439;51.046;13.692;2023-02-28T15:24:24;6.70;34.30
70820;DHT22;58439;51.046;13.692;2023-02-28T15:27:09;6.40;35.20
70820;DHT22;58439;51.046;13.692;2023-02-28T15:35:38;5.70;37.40
70820;DHT22;58439;51.046;13.692;2023-02-28T15:38:23;5.60;37.80
70820;DHT22;58439;51.046;13.692;2023-02-28T15:40:55;5.50;38.40
70820;DHT22;58439;51.046;13.692;2023-02-28T15:43:31;5.30;39.50
70820;DHT22;58439;51.046;13.692;2023-02-28T15:48:54;4.90;39.90
70820;DHT22;58439;51.046;13.692;2023-02-28T15:51:34;4.80;40.20
70820;DHT22;58439;51.046;13.692;2023-02-28T15:54:06;4.70;41.20
70820;DHT22;58439;51.046;13.692;2023-02-28T15:59:23;4.60;42.00
70820;DHT22;58439;51.046;13.692;2023-02-28T16:02:31;4.50;42.70
70820;DHT22;58439;51.046;13.692;2023-02-28T16:07:44;4.40;42.60
70820;DHT22;58439;51.046;13.692;2023-02-28T16:10:12;4.40;42.50
70820;DHT22;58439;51.046;13.692;2023-02-28T16:12:45;4.40;42.60
70820;DHT22;58439;51.046;13.692;2023-02-28T16:15:24;4.30;42.90
70820;DHT22;58439;51.046;13.692;2023-02-28T16:18:03;4.30;43.10
70820;DHT22;58439;51.046;13.692;2023-02-28T16:20:30;4.20;43.30
70820;DHT22;58439;51.046;13.692;2023-02-28T16:23:02;4.20;43.80
70820;DHT22;58439;51.046;13.692;2023-02-28T16:25:42;4.10;43.80
70820;DHT22;58439;51.046;13.692;2023-02-28T16:28:44;4.10;43.90
70820;DHT22;58439;51.046;13.692;2023-02-28T16:31:12;4.00;43.90
70820;DHT22;58439;51.046;13.692;2023-02-28T16:33:44;3.90;44.20
70820;DHT22;58439;51.046;13.692;2023-02-28T16:36:21;3.80;44.60
70820;DHT22;58439;51.046;13.692;2023-02-28T16:38:52;3.80;44.90
70820;DHT22;58439;51.046;13.692;2023-02-28T16:41:23;3.70;46.20
70820;DHT22;58439;51.046;13.692;2023-02-28T16:43:56;3.60;45.60
70820;DHT22;58439;51.046;13.692;2023-02-28T16:46:32;3.50;45.80
70820;DHT22;58439;51.046;13.692;2023-02-28T16:49:01;3.40;46.10
70820;DHT22;58439;51.046;13.692;2023-02-28T16:51:29;3.40;46.50
70820;DHT22;58439;51.046;13.692;2023-02-28T16:54:00;3.30;46.70
70820;DHT22;58439;51.046;13.692;2023-02-28T16:56:36;3.30;47.10
70820;DHT22;58439;51.046;13.692;2023-02-28T16:59:33;3.20;47.40
70820;DHT22;58439;51.046;13.692;2023-02-28T17:02:01;3.10;47.40
70820;DHT22;58439;51.046;13.692;2023-02-28T17:04:28;3.10;47.80
70820;DHT22;58439;51.046;13.692;2023-02-28T17:06:56;3.00;48.00
70820;DHT22;58439;51.046;13.692;2023-02-28T17:09:24;3.00;48.90
70820;DHT22;58439;51.046;13.692;2023-02-28T17:12:08;3.00;49.80
70820;DHT22;58439;51.046;13.692;2023-02-28T17:14:36;2.90;49.80
70820;DHT22;58439;51.046;13.692;2023-02-28T17:17:06;3.00;50.40
70820;DHT22;58439;51.046;13.692;2023-02-28T17:19:34;3.00;51.00
70820;DHT22;58439;51.046;13.692;2023-02-28T17:22:03;3.00;51.20
70820;DHT22;58439;51.046;13.692;2023-02-28T17:24:31;3.10;51.70
70820;DHT22;58439;51.046;13.692;2023-02-28T17:26:58;3.10;52.00
70820;DHT22;58439;51.046;13.692;2023-02-28T17:29:25;3.00;52.90
70820;DHT22;58439;51.046;13.692;2023-02-28T17:31:53;3.00;53.20
70820;DHT22;58439;51.046;13.692;2023-02-28T17:34:21;2.90;54.20
70820;DHT22;58439;51.046;13.692;2023-02-28T17:36:50;2.90;54.70
70820;DHT22;58439;51.046;13.692;2023-02-28T17:39:19;2.80;54.90
70820;DHT22;58439;51.046;13.692;2023-02-28T17:42:28;2.60;55.40
70820;DHT22;58439;51.046;13.692;2023-02-28T17:44:56;2.50;57.00
70820;DHT22;58439;51.046;13.692;2023-02-28T17:47:23;2.40;58.80
70820;DHT22;58439;51.046;13.692;2023-02-28T17:49:51;2.50;60.10
70820;DHT22;58439;51.046;13.692;2023-02-28T17:52:26;2.40;60.00
70820;DHT22;58439;51.046;13.692;2023-02-28T17:54:54;2.30;60.30
70820;DHT22;58439;51.046;13.692;2023-02-28T17:57:27;2.20;61.70
70820;DHT22;58439;51.046;13.692;2023-02-28T18:03:43;2.10;63.70
70820;DHT22;58439;51.046;13.692;2023-02-28T18:06:24;1.90;64.70
70820;DHT22;58439;51.046;13.692;2023-02-28T18:08:51;1.90;65.60
70820;DHT22;58439;51.046;13.692;2023-02-28T18:11:20;1.90;66.90
70820;DHT22;58439;51.046;13.692;2023-02-28T18:13:51;1.80;66.40
70820;DHT22;58439;51.046;13.692;2023-02-28T18:16:24;1.70;66.40
70820;DHT22;58439;51.046;13.692;2023-02-28T18:18:56;1.50;66.80
70820;DHT22;58439;51.046;13.692;2023-02-28T18:21:23;1.50;67.40
70820;DHT22;58439;51.046;13.692;2023-02-28T18:23:51;1.40;69.20
70820;DHT22;58439;51.046;13.692;2023-02-28T18:26:18;1.30;70.80
70820;DHT22;58439;51.046;13.692;2023-02-28T18:28:46;1.40;72.00
70820;DHT22;58439;51.046;13.692;2023-02-28T18:31:16;1.30;73.00
70820;DHT22;58439;51.046;13.692;2023-02-28T18:33:49;1.40;73.90
70820;DHT22;58439;51.046;13.692;2023-02-28T18:36:18;1.40;74.80
70820;DHT22;58439;51.046;13.692;2023-02-28T18:38:48;1.50;75.20
70820;DHT22;58439;51.046;13.692;2023-02-28T18:41:18;1.40;74.10
70820;DHT22;58439;51.046;13.692;2023-02-28T18:43:48;1.30;74.30
70820;DHT22;58439;51.046;13.692;2023-02-28T18:46:19;1.10;75.20
70820;DHT22;58439;51.046;13.692;2023-02-28T18:48:50;1.00;76.70
70820;DHT22;58439;51.046;13.692;2023-02-28T18:51:26;0.90;77.00
70820;DHT22;58439;51.046;13.692;2023-02-28T18:53:55;0.90;77.70
70820;DHT22;58439;51.046;13.692;2023-02-28T18:56:25;0.80;78.10
70820;DHT22;58439;51.046;13.692;2023-02-28T18:58:59;0.80;77.90
70820;DHT22;58439;51.046;13.692;2023-02-28T19:01:30;0.70;78.00
70820;DHT22;58439;51.046;13.692;2023-02-28T19:04:00;0.80;80.60
70820;DHT22;58439;51.046;13.692;2023-02-28T19:06:32;1.00;81.10
70820;DHT22;58439;51.046;13.692;2023-02-28T19:09:01;1.10;84.40
70820;DHT22;58439;51.046;13.692;2023-02-28T19:11:30;1.10;82.20
70820;DHT22;58439;51.046;13.692;2023-02-28T19:13:58;1.10;82.40
70820;DHT22;58439;51.046;13.692;2023-02-28T19:16:28;1.10;82.20
70820;DHT22;58439;51.046;13.692;2023-02-28T19:18:56;1.00;82.30
70820;DHT22;58439;51.046;13.692;2023-02-28T19:21:25;1.00;83.00